Time;durP1;ratioP1;P1;durP2;ratioP2;P2;SDS_P1;SDS_P2;PMS_P1;PMS_P2;Temp;Humidity;BMP_temperature;BMP_pressure;BME280_temperature;BME280_humidity;BME280_pressure;Samples;Min_cycle;Max_cycle;Signal;HPM_P1;HPM_P2
2024/01/22 00:01:27;;;;;;;4.93;1.10;;;9.80;99.90;;;;;;4999847;28;20031;-80
2024/01/22 00:03:53;;;;;;;1.52;0.43;;;8.50;99.90;;;;;;5000224;28;20025;-80
2024/01/22 00:06:19;;;;;;;5.68;0.63;;;8.60;99.90;;;;;;5001730;28;20023;-80
2024/01/22 00:08:45;;;;;;;9.38;0.40;;;8.60;99.90;;;;;;5001066;28;20026;-80
2024/01/22 00:11:11;;;;;;;2.08;0.40;;;8.70;99.90;;;;;;4999075;28;20033;-81
2024/01/22 00:13:37;;;;;;;3.78;0.63;;;8.80;99.90;;;;;;4998827;28;20118;-81
2024/01/22 00:16:02;;;;;;;4.28;0.98;;;8.80;99.90;;;;;;5000380;28;20459;-79
2024/01/22 00:18:28;;;;;;;4.60;1.05;;;8.80;99.90;;;;;;4999771;28;20062;-80
2024/01/22 00:20:54;;;;;;;5.20;1.27;;;;;;;;;;4999011;28;20022;-79
2024/01/22 00:23:19;;;;;;;1.83;0.50;;;8.90;99.90;;;;;;5000833;28;20027;-80
2024/01/22 00:25:45;;;;;;;2.20;0.40;;;8.90;99.90;;;;;;4999652;28;20033;-79
2024/01/22 00:28:11;;;;;;;5.70;0.47;;;8.90;99.90;;;;;;4998512;28;20026;-79
2024/01/22 00:30:36;;;;;;;5.93;1.80;;;9.00;99.90;;;;;;4997634;28;20036;-80
2024/01/22 00:33:02;;;;;;;6.70;1.67;;;9.00;99.90;;;;;;4999236;28;20438;-80
2024/01/22 00:35:28;;;;;;;5.00;1.67;;;9.00;99.90;;;;;;5001034;28;20113;-81
2024/01/22 00:37:54;;;;;;;5.10;1.20;;;9.00;99.90;;;;;;4999288;28;20058;-81
2024/01/22 00:40:19;;;;;;;6.00;1.20;;;9.00;99.90;;;;;;4999439;28;20497;-80
2024/01/22 00:42:45;;;;;;;3.67;0.90;;;9.00;99.90;;;;;;4999239;28;20505;-80
2024/01/22 00:45:11;;;;;;;2.28;0.90;;;9.10;99.90;;;;;;4999166;28;20029;-80
2024/01/22 00:47:37;;;;;;;2.85;1.02;;;9.10;99.90;;;;;;5000379;28;20537;-80
2024/01/22 00:50:03;;;;;;;2.15;0.60;;;9.10;99.90;;;;;;5002404;28;20176;-80
2024/01/22 00:52:29;;;;;;;3.65;1.10;;;9.20;99.90;;;;;;5004004;28;20025;-80
2024/01/22 00:54:54;;;;;;;5.25;0.88;;;9.20;99.90;;;;;;5005213;28;20031;-80
2024/01/22 00:57:20;;;;;;;1.58;0.47;;;9.20;99.90;;;;;;5006417;28;20057;-79
2024/01/22 00:59:46;;;;;;;1.95;0.43;;;9.20;99.90;;;;;;5006969;28;20061;-80
2024/01/22 01:02:12;;;;;;;2.38;0.68;;;9.20;99.90;;;;;;5006163;28;20014;-79
2024/01/22 01:04:37;;;;;;;5.55;1.25;;;9.20;99.90;;;;;;5005391;28;20021;-80
2024/01/22 01:07:03;;;;;;;3.85;0.70;;;9.20;99.90;;;;;;5002960;28;20073;-80
2024/01/22 01:09:29;;;;;;;1.98;0.47;;;9.20;99.90;;;;;;4999022;28;20027;-80
2024/01/22 01:11:54;;;;;;;2.38;0.65;;;9.30;99.90;;;;;;4998913;28;20550;-80
2024/01/22 01:14:20;;;;;;;4.32;0.80;;;9.20;99.90;;;;;;4998543;28;20026;-81
2024/01/22 01:16:45;;;;;;;4.50;0.80;;;9.20;99.90;;;;;;4998876;28;20023;-82
2024/01/22 01:19:11;;;;;;;6.88;0.85;;;9.20;99.90;;;;;;4998436;28;20077;-81
2024/01/22 01:21:40;;;;;;;1.10;0.30;;;9.20;99.90;;;;;;4998241;28;20026;-81
2024/01/22 01:24:07;;;;;;;6.97;1.50;;;9.10;99.90;;;;;;4999748;28;20394;-80
2024/01/22 01:26:33;;;;;;;2.53;0.88;;;9.10;99.90;;;;;;4999876;28;20018;-80
2024/01/22 01:28:58;;;;;;;1.23;0.68;;;9.10;99.90;;;;;;5000048;28;20030;-80
2024/01/22 01:31:28;;;;;;;5.63;0.95;;;9.10;99.90;;;;;;4998191;28;20074;-80
2024/01/22 01:33:54;;;;;;;3.22;0.65;;;9.10;99.90;;;;;;4999452;28;20032;-81
2024/01/22 01:36:19;;;;;;;3.40;1.15;;;9.10;99.90;;;;;;4997785;28;20029;-79
2024/01/22 01:38:45;;;;;;;4.05;0.40;;;9.10;99.90;;;;;;4997938;28;20125;-80
2024/01/22 01:41:11;;;;;;;4.50;0.63;;;9.00;99.90;;;;;;4997972;28;20113;-80
2024/01/22 01:43:36;;;;;;;3.13;0.85;;;9.00;99.90;;;;;;4999987;28;20022;-80
2024/01/22 01:46:02;;;;;;;1.45;0.50;;;9.10;99.90;;;;;;4999961;28;20030;-80
2024/01/22 01:48:28;;;;;;;5.70;0.50;;;9.10;99.90;;;;;;4999338;28;20026;-81
2024/01/22 01:50:56;;;;;;;1.45;0.63;;;9.10;99.90;;;;;;5000211;28;20030;-82
2024/01/22 01:53:22;;;;;;;2.20;0.30;;;9.10;99.90;;;;;;5000170;28;20018;-82
2024/01/22 01:55:49;;;;;;;7.57;0.65;;;9.10;99.90;;;;;;4998398;28;20029;-82
2024/01/22 01:58:17;;;;;;;2.92;0.57;;;9.20;99.90;;;;;;4998930;28;20030;-82
2024/01/22 02:00:47;;;;;;;4.25;0.60;;;9.20;99.90;;;;;;4998875;28;20019;-82
2024/01/22 02:03:12;;;;;;;2.00;0.60;;;9.20;99.90;;;;;;5000341;28;20042;-81
2024/01/22 02:05:38;;;;;;;0.52;0.35;;;9.30;99.90;;;;;;4998955;28;20022;-81
2024/01/22 02:08:04;;;;;;;5.13;0.65;;;9.30;99.90;;;;;;4997283;28;20113;-81
2024/01/22 02:10:29;;;;;;;2.13;0.20;;;9.30;99.90;;;;;;4998645;28;20022;-81
2024/01/22 02:12:55;;;;;;;3.33;1.38;;;9.40;99.90;;;;;;4997688;28;20030;-82
2024/01/22 02:15:21;;;;;;;2.80;0.47;;;9.40;99.90;;;;;;4996381;28;20062;-81
2024/01/22 02:17:47;;;;;;;1.65;0.40;;;9.40;99.90;;;;;;4997382;28;20062;-81
2024/01/22 02:20:13;;;;;;;6.90;0.40;;;9.50;99.90;;;;;;4997887;28;20078;-81
2024/01/22 02:22:39;;;;;;;4.20;0.65;;;9.50;99.90;;;;;;4997362;28;20402;-81
2024/01/22 02:25:05;;;;;;;4.13;0.30;;;9.60;99.90;;;;;;4998866;28;20026;-81
2024/01/22 02:27:31;;;;;;;2.45;0.10;;;;;;;;;;4998575;28;20026;-81
2024/01/22 02:29:57;;;;;;;1.58;0.30;;;9.60;99.90;;;;;;4997818;28;20117;-81
2024/01/22 02:32:22;;;;;;;4.13;0.17;;;9.90;99.90;;;;;;4996405;28;20026;-81
2024/01/22 02:34:48;;;;;;;2.88;0.03;;;9.60;99.90;;;;;;4996804;28;20031;-81
2024/01/22 02:37:15;;;;;;;2.20;0.20;;;9.60;99.90;;;;;;4996937;28;20023;-81
2024/01/22 02:39:41;;;;;;;1.02;0.00;;;9.70;99.90;;;;;;4997769;28;20033;-81
2024/01/22 02:42:07;;;;;;;3.47;0.25;;;9.60;99.90;;;;;;4998613;28;20100;-81
2024/01/22 02:44:35;;;;;;;1.13;0.10;;;9.60;99.90;;;;;;4998766;28;20023;-81
2024/01/22 02:47:01;;;;;;;2.97;0.52;;;9.60;99.90;;;;;;4997004;28;20386;-81
2024/01/22 02:49:27;;;;;;;4.47;0.38;;;9.60;99.90;;;;;;4996709;28;20035;-81
2024/01/22 02:51:53;;;;;;;4.18;0.40;;;9.70;99.90;;;;;;4996554;28;20027;-81
2024/01/22 02:54:19;;;;;;;3.10;0.20;;;9.80;99.90;;;;;;4996841;28;20031;-80
2024/01/22 02:56:44;;;;;;;0.30;0.10;;;9.80;99.90;;;;;;4996362;28;20029;-81
2024/01/22 02:59:10;;;;;;;0.73;0.40;;;9.80;99.90;;;;;;4996095;28;20026;-80
2024/01/22 03:01:36;;;;;;;0.22;0.00;;;10.70;99.90;;;;;;4996271;28;20024;-80
2024/01/22 03:04:01;;;;;;;3.70;0.35;;;10.00;99.90;;;;;;4998070;28;20062;-81
2024/01/22 03:06:27;;;;;;;3.92;0.00;;;10.00;99.90;;;;;;4997003;28;20063;-80
2024/01/22 03:08:52;;;;;;;0.85;0.00;;;10.00;99.90;;;;;;4996994;28;20026;-80
2024/01/22 03:11:18;;;;;;;0.90;0.30;;;10.20;99.90;;;;;;4996799;28;20034;-79
2024/01/22 03:13:47;;;;;;;0.40;0.00;;;10.30;99.90;;;;;;4997986;28;20046;-80
2024/01/22 03:16:12;;;;;;;0.10;0.00;;;10.30;99.90;;;;;;4994919;28;20549;-79
2024/01/22 03:18:38;;;;;;;2.10;0.00;;;10.30;99.90;;;;;;4995571;28;20023;-79
2024/01/22 03:21:04;;;;;;;1.77;0.00;;;10.40;99.90;;;;;;4996572;28;20474;-78
2024/01/22 03:23:30;;;;;;;0.73;0.00;;;10.50;99.90;;;;;;4994339;28;20504;-79
2024/01/22 03:25:56;;;;;;;1.20;0.00;;;10.60;99.90;;;;;;4999662;28;20026;-79
2024/01/22 03:28:22;;;;;;;0.08;0.00;;;10.60;99.90;;;;;;5000187;28;20029;-79
2024/01/22 03:30:48;;;;;;;0.93;0.00;;;10.60;99.90;;;;;;5004660;28;20035;-79
2024/01/22 03:33:14;;;;;;;0.20;0.00;;;10.60;99.90;;;;;;5001313;28;20402;-78
2024/01/22 03:35:40;;;;;;;0.10;0.00;;;10.60;99.90;;;;;;5000887;28;20022;-79
2024/01/22 03:38:06;;;;;;;0.65;0.00;;;10.60;99.90;;;;;;5001537;28;20394;-78
2024/01/22 03:40:31;;;;;;;2.17;0.00;;;10.60;99.90;;;;;;5000147;28;20164;-79
2024/01/22 03:42:57;;;;;;;0.80;0.00;;;10.70;99.90;;;;;;5003437;28;20041;-78
2024/01/22 03:45:23;;;;;;;0.28;0.10;;;;;;;;;;5001371;28;20026;-79
2024/01/22 03:47:48;;;;;;;0.00;0.00;;;10.60;99.90;;;;;;4998336;28;20027;-79
2024/01/22 03:50:14;;;;;;;0.00;0.00;;;10.60;99.90;;;;;;4998105;28;20554;-78
2024/01/22 03:52:39;;;;;;;0.00;0.00;;;10.60;99.90;;;;;;4999081;28;20026;-79
2024/01/22 03:55:07;;;;;;;0.80;0.30;;;11.00;99.90;;;;;;4998612;28;20425;-78
2024/01/22 03:57:33;;;;;;;3.53;0.17;;;10.60;99.90;;;;;;4998728;28;20025;-79
2024/01/22 03:59:58;;;;;;;1.15;0.00;;;10.60;99.90;;;;;;4998288;28;20026;-79
2024/01/22 04:02:24;;;;;;;0.90;0.10;;;10.70;99.90;;;;;;4998661;28;20034;-78
2024/01/22 04:04:50;;;;;;;0.20;0.10;;;10.70;99.90;;;;;;4999118;28;20390;-78
2024/01/22 04:07:16;;;;;;;0.80;0.00;;;10.80;99.90;;;;;;4997539;28;20090;-81
2024/01/22 04:09:41;;;;;;;0.38;0.00;;;10.80;99.90;;;;;;5000964;28;20157;-81
2024/01/22 04:12:07;;;;;;;0.65;0.00;;;10.90;99.90;;;;;;5000827;28;20037;-81
2024/01/22 04:14:33;;;;;;;0.20;0.00;;;10.90;99.90;;;;;;5001602;28;20074;-81
2024/01/22 04:16:58;;;;;;;0.00;0.00;;;11.00;99.90;;;;;;5002021;28;20117;-81
2024/01/22 04:19:24;;;;;;;0.63;0.00;;;11.00;99.90;;;;;;5000476;28;20023;-81
2024/01/22 04:21:50;;;;;;;0.10;0.00;;;11.00;99.90;;;;;;5000469;28;20053;-81
2024/01/22 04:24:16;;;;;;;3.40;0.10;;;;;;;;;;5002115;28;20186;-82
2024/01/22 04:26:42;;;;;;;0.00;0.00;;;;;;;;;;5000876;28;20046;-82
2024/01/22 04:29:07;;;;;;;5.13;0.00;;;11.10;99.90;;;;;;5000249;28;20030;-82
2024/01/22 04:31:33;;;;;;;0.80;0.00;;;11.10;99.90;;;;;;5000919;28;20441;-81
2024/01/22 04:33:58;;;;;;;0.38;0.10;;;11.20;99.90;;;;;;5000728;28;20035;-81
2024/01/22 04:36:24;;;;;;;0.38;0.00;;;11.20;99.90;;;;;;5000274;28;20502;-81
2024/01/22 04:38:51;;;;;;;0.10;0.00;;;11.20;99.90;;;;;;5001680;28;20030;-81
2024/01/22 04:41:16;;;;;;;3.50;0.00;;;11.20;99.90;;;;;;5002512;28;20023;-81
2024/01/22 04:43:42;;;;;;;0.80;0.00;;;11.20;99.90;;;;;;5000415;28;20117;-81
2024/01/22 04:46:08;;;;;;;0.90;0.00;;;11.20;99.90;;;;;;5000993;28;20468;-81
2024/01/22 04:48:34;;;;;;;2.63;0.55;;;11.20;99.90;;;;;;5001637;28;20033;-81
2024/01/22 04:50:59;;;;;;;1.92;0.00;;;11.20;99.90;;;;;;5001237;28;20437;-81
2024/01/22 04:53:25;;;;;;;2.13;0.20;;;;;;;;;;5002352;28;20030;-81
2024/01/22 04:55:51;;;;;;;1.65;0.00;;;11.10;99.90;;;;;;5001358;28;20030;-81
2024/01/22 04:58:17;;;;;;;2.08;0.52;;;11.00;99.90;;;;;;4999985;28;20026;-81
2024/01/22 05:00:42;;;;;;;0.65;0.00;;;11.00;99.90;;;;;;5000476;28;20019;-81
2024/01/22 05:03:08;;;;;;;1.60;0.10;;;11.00;99.90;;;;;;4999558;28;20046;-81
2024/01/22 05:05:34;;;;;;;2.05;0.00;;;11.00;99.90;;;;;;5000104;28;20022;-82
2024/01/22 05:08:01;;;;;;;0.52;0.00;;;11.00;99.90;;;;;;5001018;28;20022;-81
2024/01/22 05:10:26;;;;;;;0.30;0.00;;;11.00;99.90;;;;;;4999663;28;20125;-81
2024/01/22 05:12:53;;;;;;;1.38;0.00;;;;;;;;;;4999944;28;20470;-81
2024/01/22 05:15:18;;;;;;;0.00;0.00;;;10.70;99.90;;;;;;5001768;28;20080;-81
2024/01/22 05:17:45;;;;;;;0.00;0.00;;;10.70;99.90;;;;;;5001420;28;20074;-81
2024/01/22 05:20:10;;;;;;;1.13;0.00;;;10.70;99.90;;;;;;4999240;28;20023;-81
2024/01/22 05:22:36;;;;;;;1.63;0.00;;;10.70;99.90;;;;;;5000587;28;20021;-81
2024/01/22 05:25:02;;;;;;;2.20;0.00;;;10.70;99.90;;;;;;5000378;28;20451;-80
2024/01/22 05:27:29;;;;;;;1.15;0.00;;;10.80;99.90;;;;;;4998699;28;20493;-81
2024/01/22 05:29:54;;;;;;;1.52;0.00;;;10.70;99.90;;;;;;4999519;28;20031;-81
2024/01/22 05:32:20;;;;;;;1.60;0.20;;;10.80;99.90;;;;;;5000270;28;20030;-81
2024/01/22 05:34:46;;;;;;;0.00;0.00;;;10.90;99.90;;;;;;5000711;28;20068;-80
2024/01/22 05:37:11;;;;;;;0.45;0.00;;;10.90;99.90;;;;;;4999232;28;20030;-80
2024/01/22 05:39:37;;;;;;;1.67;0.00;;;11.00;99.90;;;;;;4998602;28;20432;-82
2024/01/22 05:42:06;;;;;;;0.10;0.00;;;11.00;99.90;;;;;;4998423;28;20024;-81
2024/01/22 05:44:31;;;;;;;0.15;0.00;;;11.00;99.90;;;;;;4999293;28;20022;-82
2024/01/22 05:46:57;;;;;;;1.92;0.30;;;11.00;99.90;;;;;;5000621;28;20474;-81
2024/01/22 05:49:23;;;;;;;1.35;0.00;;;11.10;99.90;;;;;;4998833;28;20053;-81
2024/01/22 05:51:49;;;;;;;1.17;0.00;;;11.20;99.90;;;;;;5000186;28;20054;-82
2024/01/22 05:54:15;;;;;;;4.15;0.00;;;11.20;99.90;;;;;;4999494;28;20033;-81
2024/01/22 05:56:41;;;;;;;0.77;0.00;;;11.40;99.90;;;;;;4997888;28;20114;-81
2024/01/22 05:59:07;;;;;;;1.55;0.60;;;;;;;;;;5000195;28;20026;-81
2024/01/22 06:01:33;;;;;;;0.80;0.00;;;11.40;99.90;;;;;;4999187;28;20026;-81
2024/01/22 06:04:00;;;;;;;0.30;0.00;;;;;;;;;;5000945;28;20110;-82
2024/01/22 06:06:26;;;;;;;3.30;0.10;;;11.40;99.90;;;;;;4998902;28;20033;-80
2024/01/22 06:08:51;;;;;;;4.57;0.25;;;11.40;99.90;;;;;;4999568;28;20047;-84
2024/01/22 06:11:18;;;;;;;2.45;0.35;;;11.40;99.90;;;;;;5000230;28;20061;-84
2024/01/22 06:13:44;;;;;;;0.00;0.00;;;11.50;99.90;;;;;;4999627;28;20125;-84
2024/01/22 06:16:12;;;;;;;2.75;0.40;;;11.50;99.90;;;;;;4998565;28;20056;-84
2024/01/22 06:18:39;;;;;;;4.68;0.00;;;11.50;99.90;;;;;;4998645;28;20037;-84
2024/01/22 06:21:06;;;;;;;3.00;0.00;;;11.50;99.90;;;;;;4999160;28;20479;-84
2024/01/22 06:23:33;;;;;;;7.72;0.47;;;11.50;99.90;;;;;;4999334;28;20038;-84
2024/01/22 06:26:02;;;;;;;3.63;0.17;;;11.50;99.90;;;;;;4999243;28;20097;-82
2024/01/22 06:28:29;;;;;;;;;;;11.40;99.90;;;;;;4999636;28;20517;-82
2024/01/22 06:30:54;;;;;;;3.47;0.30;;;11.40;99.90;;;;;;4999492;28;19913;-82
2024/01/22 06:33:21;;;;;;;12.63;0.60;;;11.50;99.90;;;;;;5000753;28;20034;-83
2024/01/22 06:35:47;;;;;;;1.95;0.10;;;11.40;99.90;;;;;;5001633;28;20034;-83
2024/01/22 06:38:14;;;;;;;3.58;0.22;;;11.50;99.90;;;;;;5000330;28;20030;-83
2024/01/22 06:40:40;;;;;;;1.38;0.00;;;;;;;;;;4998467;28;20054;-80
2024/01/22 06:43:07;;;;;;;3.50;0.40;;;11.50;99.90;;;;;;4998749;28;20022;-82
2024/01/22 06:45:36;;;;;;;5.40;0.20;;;11.50;99.90;;;;;;4998724;28;20026;-79
2024/01/22 06:48:02;;;;;;;2.35;0.10;;;11.50;99.90;;;;;;4997967;28;20113;-79
2024/01/22 06:50:27;;;;;;;4.13;0.20;;;11.50;99.90;;;;;;4997926;28;20077;-80
2024/01/22 06:52:53;;;;;;;4.13;0.25;;;11.50;99.90;;;;;;4999987;28;20050;-80
2024/01/22 06:55:20;;;;;;;2.10;0.00;;;11.50;99.90;;;;;;5001083;28;20046;-81
2024/01/22 06:57:46;;;;;;;0.43;0.25;;;11.50;99.90;;;;;;5002210;28;20024;-79
2024/01/22 07:00:15;;;;;;;2.45;0.03;;;11.50;99.90;;;;;;5005947;28;20018;-79
2024/01/22 07:02:43;;;;;;;;;;;11.50;99.90;;;;;;5006219;28;20029;-79
2024/01/22 07:05:10;;;;;;;4.95;0.13;;;11.40;99.90;;;;;;5003897;28;19928;-79
2024/01/22 07:07:37;;;;;;;6.38;0.52;;;11.40;99.90;;;;;;4998218;28;20049;-78
2024/01/22 07:10:08;;;;;;;2.08;0.00;;;11.40;99.90;;;;;;4993799;28;20019;-79
2024/01/22 07:12:34;;;;;;;7.65;0.25;;;11.40;99.90;;;;;;4993223;28;20034;-78
2024/01/22 07:15:00;;;;;;;11.77;0.20;;;11.30;99.90;;;;;;4993923;28;20026;-77
2024/01/22 07:17:26;;;;;;;5.47;0.85;;;11.40;99.90;;;;;;4993261;28;20026;-78
2024/01/22 07:19:52;;;;;;;9.07;0.38;;;11.30;99.90;;;;;;4992906;28;20464;-77
2024/01/22 07:22:18;;;;;;;1.33;0.00;;;11.30;99.90;;;;;;4994132;28;20393;-77
2024/01/22 07:24:43;;;;;;;10.73;0.20;;;11.30;99.90;;;;;;4993098;28;20026;-78
2024/01/22 07:27:09;;;;;;;8.45;0.70;;;11.40;99.90;;;;;;4993329;28;20018;-78
2024/01/22 07:29:35;;;;;;;9.27;0.57;;;11.90;99.90;;;;;;4992953;28;20122;-78
2024/01/22 07:32:01;;;;;;;14.15;0.77;;;11.40;99.90;;;;;;4994491;28;20050;-79
2024/01/22 07:34:27;;;;;;;9.27;0.30;;;11.50;99.90;;;;;;4994824;28;20045;-78
2024/01/22 07:36:53;;;;;;;11.57;0.40;;;11.40;99.90;;;;;;4993467;28;20398;-78
2024/01/22 07:39:19;;;;;;;9.55;0.82;;;11.50;99.90;;;;;;4996161;28;20109;-78
2024/01/22 07:41:45;;;;;;;9.45;0.57;;;11.40;99.90;;;;;;4998233;28;20046;-79
2024/01/22 07:44:11;;;;;;;10.68;0.98;;;11.30;99.90;;;;;;4998355;28;20019;-77
2024/01/22 07:46:36;;;;;;;18.60;1.05;;;11.40;99.90;;;;;;4998365;28;20501;-77
2024/01/22 07:49:02;;;;;;;14.23;1.60;;;11.40;99.90;;;;;;4998450;28;20022;-78
2024/01/22 07:51:29;;;;;;;11.85;1.65;;;11.40;99.90;;;;;;4996325;28;20019;-78
2024/01/22 07:53:55;;;;;;;22.42;1.40;;;11.40;99.90;;;;;;4999107;28;20052;-77
2024/01/22 07:56:20;;;;;;;19.98;2.33;;;11.50;99.90;;;;;;4996894;28;20054;-77
2024/01/22 07:58:46;;;;;;;17.92;1.45;;;11.50;99.90;;;;;;4998122;28;20034;-77
2024/01/22 08:01:12;;;;;;;12.98;1.40;;;11.40;99.90;;;;;;4999782;28;20060;-78
2024/01/22 08:03:38;;;;;;;21.92;2.40;;;11.30;99.90;;;;;;4998543;28;20030;-78
2024/01/22 08:06:04;;;;;;;17.52;1.23;;;11.20;99.90;;;;;;4998148;28;20022;-78
2024/01/22 08:08:30;;;;;;;14.20;1.10;;;11.10;99.90;;;;;;4997926;28;20026;-78
2024/01/22 08:10:56;;;;;;;13.48;1.20;;;11.00;99.90;;;;;;4994280;28;20026;-77
2024/01/22 08:13:23;;;;;;;13.85;0.95;;;11.00;99.90;;;;;;4997598;28;20042;-79
2024/01/22 08:15:49;;;;;;;12.50;0.75;;;10.80;99.90;;;;;;4998866;28;20100;-79
2024/01/22 08:18:15;;;;;;;9.10;0.93;;;10.80;99.90;;;;;;4997357;28;20023;-79
2024/01/22 08:20:41;;;;;;;10.75;0.30;;;10.70;99.90;;;;;;5000981;28;20022;-79
2024/01/22 08:23:08;;;;;;;6.55;0.60;;;10.70;99.90;;;;;;5005008;28;20061;-80
2024/01/22 08:25:34;;;;;;;11.48;0.52;;;10.70;99.90;;;;;;5009403;28;20030;-81
2024/01/22 08:28:00;;;;;;;16.77;0.60;;;10.70;99.90;;;;;;5010306;28;20125;-80
2024/01/22 08:30:27;;;;;;;18.15;1.55;;;10.60;99.90;;;;;;5000774;28;20486;-79
2024/01/22 08:32:53;;;;;;;14.57;0.75;;;10.60;99.90;;;;;;5002041;28;20027;-79
2024/01/22 08:35:20;;;;;;;12.70;0.63;;;;;;;;;;4999814;28;20474;-78
2024/01/22 08:37:50;;;;;;;6.68;0.60;;;10.50;99.90;;;;;;4999183;28;20057;-79
2024/01/22 08:40:21;;;;;;;15.13;1.33;;;10.50;99.90;;;;;;4996258;28;20022;-78
2024/01/22 08:42:55;;;;;;;14.43;2.22;;;10.50;99.90;;;;;;4995785;28;20466;-78
2024/01/22 08:45:22;;;;;;;12.32;1.33;;;10.40;99.90;;;;;;5001765;28;20026;-79
2024/01/22 08:47:49;;;;;;;14.63;0.77;;;10.40;99.90;;;;;;5002178;28;20029;-80
2024/01/22 08:50:21;;;;;;;20.40;1.63;;;10.40;99.90;;;;;;5002632;28;20058;-79
2024/01/22 08:52:47;;;;;;;22.88;1.33;;;10.40;99.90;;;;;;5003801;28;20033;-79
2024/01/22 08:55:14;;;;;;;20.15;1.45;;;10.40;99.90;;;;;;5001115;28;20032;-80
2024/01/22 08:57:41;;;;;;;18.85;2.67;;;10.40;99.90;;;;;;5001385;28;20026;-80
2024/01/22 09:00:10;;;;;;;18.27;1.65;;;10.30;99.90;;;;;;5001630;28;20082;-79
2024/01/22 09:02:41;;;;;;;19.13;2.15;;;10.30;99.90;;;;;;5001093;28;20018;-79
2024/01/22 09:05:07;;;;;;;16.40;1.35;;;10.40;99.90;;;;;;4999065;28;20161;-79
2024/01/22 09:07:34;;;;;;;19.60;2.58;;;10.30;99.90;;;;;;4998294;28;20026;-79
2024/01/22 09:10:02;;;;;;;29.45;3.20;;;10.30;99.90;;;;;;4999163;28;20436;-79
2024/01/22 09:12:27;;;;;;;26.35;2.20;;;10.30;99.90;;;;;;5000002;28;20474;-79
2024/01/22 09:14:53;;;;;;;19.60;2.40;;;10.30;99.90;;;;;;4999865;28;20085;-79
2024/01/22 09:17:19;;;;;;;29.88;3.25;;;10.30;99.90;;;;;;4999136;28;20398;-79
2024/01/22 09:19:44;;;;;;;33.42;2.92;;;10.20;99.90;;;;;;4999094;28;20026;-79
2024/01/22 09:22:10;;;;;;;25.92;2.67;;;10.20;99.90;;;;;;4998198;28;20186;-79
2024/01/22 09:24:36;;;;;;;31.60;3.33;;;10.20;99.90;;;;;;4998995;28;20105;-79
2024/01/22 09:27:01;;;;;;;23.02;2.95;;;10.10;99.90;;;;;;5000057;28;20026;-80
2024/01/22 09:29:27;;;;;;;28.38;3.17;;;10.10;99.90;;;;;;4999246;28;20125;-79
2024/01/22 09:31:53;;;;;;;30.98;3.05;;;10.10;99.90;;;;;;5000723;28;20026;-80
2024/01/22 09:34:18;;;;;;;27.40;2.92;;;9.90;99.90;;;;;;5001320;28;20038;-80
2024/01/22 09:36:44;;;;;;;39.35;3.42;;;10.00;99.90;;;;;;5002084;28;20029;-80
2024/01/22 09:39:09;;;;;;;32.78;3.17;;;9.90;99.90;;;;;;5001759;28;20109;-80
2024/01/22 09:41:35;;;;;;;23.17;2.65;;;9.90;99.90;;;;;;5001186;28;20033;-80
2024/01/22 09:44:02;;;;;;;29.00;2.88;;;9.80;99.90;;;;;;5000523;28;20501;-80
2024/01/22 09:46:29;;;;;;;22.88;3.47;;;9.90;99.90;;;;;;5001451;28;20065;-79
2024/01/22 09:48:54;;;;;;;20.85;1.83;;;9.90;99.90;;;;;;5000242;28;20045;-80
2024/01/22 09:51:20;;;;;;;21.83;2.03;;;9.80;99.90;;;;;;5001205;28;20030;-80
2024/01/22 09:53:47;;;;;;;26.85;2.00;;;9.80;99.90;;;;;;5000677;28;20018;-80
2024/01/22 09:56:16;;;;;;;21.08;1.95;;;9.70;99.90;;;;;;5001384;28;20019;-80
2024/01/22 09:58:43;;;;;;;22.65;2.58;;;9.70;99.90;;;;;;5001515;28;20458;-80
2024/01/22 10:01:13;;;;;;;24.05;3.42;;;9.70;99.90;;;;;;5001178;28;20030;-80
2024/01/22 10:03:39;;;;;;;16.48;1.77;;;9.80;99.90;;;;;;5000567;28;20026;-81
2024/01/22 10:06:05;;;;;;;14.90;1.52;;;9.80;99.90;;;;;;4999829;28;20516;-80
2024/01/22 10:08:31;;;;;;;21.17;1.65;;;9.80;99.90;;;;;;5001502;28;20026;-80
2024/01/22 10:10:57;;;;;;;14.25;1.52;;;9.90;99.90;;;;;;4999323;28;20029;-79
2024/01/22 10:13:23;;;;;;;22.35;0.98;;;;;;;;;;5000138;28;20026;-79
2024/01/22 10:15:49;;;;;;;17.10;1.55;;;9.80;99.90;;;;;;4999857;28;20027;-80
2024/01/22 10:18:17;;;;;;;19.98;2.00;;;9.80;99.90;;;;;;4999558;28;20053;-80
2024/01/22 10:20:44;;;;;;;22.30;1.63;;;11.20;99.90;;;;;;4999238;28;20076;-80
2024/01/22 10:23:11;;;;;;;30.17;3.17;;;9.90;99.90;;;;;;4999278;28;20057;-80
2024/01/22 10:25:37;;;;;;;16.15;1.70;;;10.00;99.90;;;;;;4999119;28;20023;-80
2024/01/22 10:28:10;;;;;;;19.95;1.30;;;10.10;99.90;;;;;;4999602;28;20049;-79
2024/01/22 10:30:37;;;;;;;15.50;1.48;;;10.00;99.90;;;;;;4998821;28;20034;-79
2024/01/22 10:33:13;;;;;;;31.58;1.52;;;10.10;99.90;;;;;;4999964;28;20106;-80
2024/01/22 10:35:40;;;;;;;16.13;0.95;;;10.10;99.90;;;;;;5000359;28;20449;-79
2024/01/22 10:38:11;;;;;;;16.88;0.75;;;10.10;99.90;;;;;;4998869;28;20018;-79
2024/01/22 10:40:37;;;;;;;20.40;0.82;;;10.20;99.90;;;;;;5000278;28;20022;-80
2024/01/22 10:43:20;;;;;;;10.27;0.70;;;10.20;99.90;;;;;;4999333;28;20372;-79
2024/01/22 10:45:50;;;;;;;15.60;1.45;;;10.30;99.90;;;;;;4996113;28;20023;-79
2024/01/22 10:48:17;;;;;;;12.65;1.02;;;10.30;99.90;;;;;;4999943;28;20467;-80
2024/01/22 10:50:44;;;;;;;14.05;0.82;;;10.30;99.90;;;;;;4999345;28;20417;-80
2024/01/22 10:53:11;;;;;;;11.60;1.13;;;;;;;;;;4999015;28;20042;-80
2024/01/22 10:55:40;;;;;;;27.88;1.80;;;10.40;99.90;;;;;;4999556;28;20018;-80
2024/01/22 10:58:18;;;;;;;17.25;0.68;;;10.40;99.90;;;;;;5000302;28;20030;-80
2024/01/22 11:00:45;;;;;;;13.30;1.52;;;10.50;99.90;;;;;;4999492;28;20030;-80
2024/01/22 11:03:14;;;;;;;24.80;3.00;;;10.50;99.90;;;;;;4998361;28;20072;-80
2024/01/22 11:05:46;;;;;;;16.65;1.33;;;10.50;99.90;;;;;;4999566;28;20026;-81
2024/01/22 11:08:15;;;;;;;13.82;0.70;;;10.50;99.90;;;;;;4999477;28;20443;-80
2024/01/22 11:10:43;;;;;;;15.52;0.60;;;10.50;99.90;;;;;;4999861;28;20049;-81
2024/01/22 11:13:09;;;;;;;14.82;0.50;;;;;;;;;;4998102;28;20082;-81
2024/01/22 11:15:35;;;;;;;21.10;1.90;;;10.70;99.90;;;;;;5000107;28;20026;-80
2024/01/22 11:18:01;;;;;;;15.32;0.82;;;10.80;99.90;;;;;;5000311;28;20044;-80
2024/01/22 11:20:27;;;;;;;11.45;0.65;;;10.90;99.90;;;;;;5000875;28;20034;-80
2024/01/22 11:23:00;;;;;;;11.63;0.52;;;10.90;99.90;;;;;;5000687;28;20057;-80
2024/01/22 11:25:26;;;;;;;13.55;0.73;;;10.80;99.90;;;;;;5000042;28;20026;-81
2024/01/22 11:28:15;;;;;;;22.05;1.35;;;10.80;99.90;;;;;;5001165;28;20025;-81
2024/01/22 11:30:47;;;;;;;13.48;0.52;;;10.90;99.90;;;;;;4995999;28;20105;-81
2024/01/22 11:33:24;;;;;;;13.50;1.15;;;10.90;99.90;;;;;;5001312;28;20057;-81
2024/01/22 11:35:50;;;;;;;11.35;0.80;;;11.00;99.90;;;;;;5000404;28;20084;-81
2024/01/22 11:38:41;;;;;;;15.18;1.08;;;11.00;99.90;;;;;;4999715;28;20023;-81
2024/01/22 11:41:07;;;;;;;12.15;0.93;;;11.00;99.90;;;;;;4999617;28;20206;-81
2024/01/22 11:43:33;;;;;;;14.25;1.10;;;11.00;99.90;;;;;;5001385;28;20360;-81
2024/01/22 11:46:14;;;;;;;12.75;1.08;;;11.00;99.90;;;;;;5000601;28;20022;-80
2024/01/22 11:48:39;;;;;;;14.60;1.48;;;11.00;99.90;;;;;;5000504;28;20033;-81
2024/01/22 11:51:08;;;;;;;21.52;1.00;;;11.00;99.90;;;;;;5002291;28;20031;-81
2024/01/22 11:53:49;;;;;;;;;;;11.00;99.90;;;;;;5001890;28;20560;-80
2024/01/22 11:56:15;;;;;;;14.43;1.30;;;11.10;99.90;;;;;;5003658;28;19905;-81
2024/01/22 11:58:41;;;;;;;17.15;1.67;;;11.00;99.90;;;;;;5004174;28;20026;-81
2024/01/22 12:01:11;;;;;;;18.98;1.27;;;11.00;99.90;;;;;;5004399;28;20042;-81
2024/01/22 12:03:40;;;;;;;22.77;1.40;;;;;;;;;;5003015;28;20023;-81
2024/01/22 12:06:07;;;;;;;11.45;0.60;;;11.10;99.90;;;;;;5004777;28;20078;-81
2024/01/22 12:08:35;;;;;;;17.50;1.38;;;11.10;99.90;;;;;;5001710;28;20033;-81
2024/01/22 12:11:09;;;;;;;14.93;1.65;;;11.10;99.90;;;;;;5003536;28;20061;-81
2024/01/22 12:13:40;;;;;;;17.48;1.88;;;11.20;99.90;;;;;;5003090;28;20104;-81
2024/01/22 12:16:19;;;;;;;27.00;1.13;;;11.20;99.90;;;;;;5003879;28;20039;-81
2024/01/22 12:18:45;;;;;;;;;;;11.20;99.90;;;;;;5003217;28;20025;-81
2024/01/22 12:21:11;;;;;;;15.95;0.95;;;11.40;99.90;;;;;;5002130;28;20366;-81
2024/01/22 12:23:38;;;;;;;10.35;0.70;;;11.30;99.90;;;;;;5002884;28;20025;-81
2024/01/22 12:26:10;;;;;;;18.05;1.70;;;11.40;99.90;;;;;;5003493;28;20479;-80
2024/01/22 12:28:36;;;;;;;13.68;1.23;;;11.40;99.90;;;;;;5009376;28;20030;-79
2024/01/22 12:31:03;;;;;;;29.15;1.33;;;11.40;99.90;;;;;;5009477;28;20037;-79
2024/01/22 12:33:33;;;;;;;11.63;0.50;;;11.40;99.90;;;;;;5009372;28;20037;-79
2024/01/22 12:36:16;;;;;;;17.90;1.10;;;11.30;99.90;;;;;;5009426;28;20030;-79
2024/01/22 12:38:52;;;;;;;11.18;0.55;;;11.40;99.90;;;;;;5010665;28;20026;-79
2024/01/22 12:41:19;;;;;;;17.98;2.20;;;11.30;99.90;;;;;;5011790;28;20081;-79
2024/01/22 12:43:46;;;;;;;17.05;1.45;;;11.30;99.90;;;;;;5011337;28;20030;-79
2024/01/22 12:46:15;;;;;;;14.68;1.25;;;11.50;99.90;;;;;;5009668;28;20094;-79
2024/01/22 12:48:41;;;;;;;;;;;11.40;99.90;;;;;;5011341;28;20106;-79
2024/01/22 12:51:08;;;;;;;8.18;0.93;;;11.40;99.90;;;;;;5007833;28;19947;-78